Latest Coastal Weather Observations for Port Lincoln Airport

IDS60701

Issued at 7:21 am CST Wednesday 29 July 2015 (issued every 10 minutes, with the page automatically refreshed every 10 minutes)

About coastal observations | Map of coastal stations | Coastal observations for SA | Marine services | Other Formats
Station Details ID: 018192 Name: PORT LINCOLN AWS Lat: -34.60 Lon: 135.88 Height: 8.5 m
Data from the previous 72 hours. | See also: Recent months at Port Lincoln Airport
Date/Time
CST
Temp

°C
Wind Pressure Rain
since 9am
mm
Weather Cloud Vis
km
Sea
Height
m
Swell
Dir
 
Speed
knots
Gust
knots
hPa Trend Height
m
Period
s
Dir
29/07:00am 7.7 NNE 5 6 1028.6 - 0.0 - - 10 - - - -
29/06:30am 7.5 N 5 6 1028.8 - 0.0 - - 10 - - - -
29/06:00am 7.7 N 8 9 1028.9 - 0.0 - Cloudy 10 - - - -
29/05:30am 6.7 NE 5 6 1028.6 - 0.0 - - 10 - - - -
29/05:00am 7.1 N 6 8 1028.3 - 0.0 - - 10 - - - -
29/04:30am 7.0 N 8 10 1028.2 - 0.0 - - 10 - - - -
29/04:00am 6.2 N 6 7 1029.3 - 0.0 - - 10 - - - -
29/03:30am 5.9 N 7 8 1029.6 - 0.0 - - 10 - - - -
29/03:00am 6.8 N 6 8 1029.8 - 0.0 - Cloudy 10 - - - -
29/02:30am 7.8 N 4 7 1030.5 - 0.0 - - 10 - - - -
29/02:00am 7.2 NNE 4 6 1030.1 - 0.0 - - 10 - - - -
29/01:30am 6.8 NNW 1 4 1030.6 - 0.0 - - 10 - - - -
29/01:00am 6.4 NNW 2 5 1030.6 - 0.0 - - 10 - - - -
29/12:30am 7.8 NNE 9 11 1030.9 - 0.0 - - 10 - - - -
29/12:00am 8.1 NNE 8 12 1031.4 - 0.0 - Mostly cloudy 10 - - - -
 
Date/Time
CST
Temp

°C
Wind Pressure Rain
since 9am
mm
Weather Cloud Vis
km
Sea
Height
m
Swell
Dir
 
Speed
knots
Gust
knots
hPa Trend Height
m
Period
s
Dir
28/11:30pm 8.6 NNE 9 12 1031.7 - 0.0 - - 10 - - - -
28/11:00pm 9.2 NNE 8 11 1031.8 - 0.0 - - 10 - - - -
28/10:30pm 9.0 NNE 10 13 1032.0 - 0.0 - - 10 - - - -
28/10:00pm 9.0 NNE 9 11 1032.4 - 0.0 - - 10 - - - -
28/09:30pm 8.5 NNE 9 10 1033.1 - 0.0 - - 10 - - - -
28/09:00pm 8.6 NNE 9 11 1033.2 - 0.0 - Mostly cloudy 10 - - - -
28/08:30pm 8.5 NNE 8 10 1033.6 - 0.0 - - 10 - - - -
28/08:00pm 7.9 NNE 6 7 1033.7 - 0.0 - - 10 - - - -
28/07:30pm 7.9 N 5 5 1033.6 - 0.0 - - 10 - - - -
28/07:00pm 8.9 N 3 5 1033.6 - 0.0 - Partly cloudy 10 - - - -
28/06:30pm 9.7 NNE 5 6 1033.6 - 0.0 - Cloudy 10 - - - -
28/06:00pm 10.4 NNE 7 9 1033.4 - 0.0 - Cloudy 10 - - - -
28/05:30pm 10.9 NE 7 9 1033.4 - 0.0 - Cloudy 10 - - - -
28/05:00pm 11.5 NE 8 11 1033.4 - 0.0 - Cloudy 10 - - - -
28/04:30pm 12.7 NNW 6 9 1033.6 - 0.0 - Partly cloudy 10 - - - -
28/04:00pm 13.0 NW 5 6 1033.9 - 0.0 - Cloudy 10 - - - -
28/03:30pm 13.6 NNW 6 8 1034.0 - 0.0 - Partly cloudy 10 - - - -
28/03:00pm 13.0 NNW 7 10 1034.1 - 0.0 - Mostly cloudy 10 - - - -
28/02:30pm 13.4 N 7 10 1034.0 - 0.0 - Partly cloudy 10 - - - -
28/02:00pm 13.0 NNW 9 13 1034.5 - 0.0 - Partly cloudy 10 - - - -
28/01:30pm 13.5 NNW 8 12 1034.7 - 0.0 - Partly cloudy 10 - - - -
28/01:00pm 13.2 NNW 9 14 1035.1 - 0.0 - Partly cloudy 10 - - - -
28/12:30pm 13.3 N 9 12 1035.9 - 0.0 - - 10 - - - -
28/12:00pm 13.4 NNW 8 12 1036.8 - 0.0 - - 10 - - - -
28/11:30am 12.5 NNW 8 13 1037.4 - 0.0 - - 10 - - - -
28/11:00am 12.9 NNW 8 11 1037.9 - 0.0 - - 10 - - - -
28/10:30am 12.0 NNW 7 9 1037.9 - 0.0 - - 9 - - - -
28/10:00am 10.4 NNW 7 10 1037.7 - 0.0 - - 10 - - - -
28/09:30am 9.1 NNW 9 11 1037.7 - 0.0 - - 10 - - - -
28/09:00am 7.7 NW 8 9 1037.5 - 0.0 - - 10 - - - -
28/08:30am 6.4 NW 8 10 1037.6 - 0.0 - - 10 - - - -
28/08:00am 6.2 NW 7 10 1037.1 - 0.0 - - 10 - - - -
28/07:30am 4.5 NW 8 10 1036.8 - 0.0 - - 10 - - - -
28/07:00am 4.6 NNW 10 12 1037.0 - 0.0 - - 10 - - - -
28/06:30am 4.0 NNW 8 9 1037.3 - 0.0 - - 10 - - - -
28/06:00am 3.8 NW 7 8 1037.3 - 0.0 - - 10 - - - -
28/05:30am 4.0 NNW 8 9 1037.1 - 0.0 - - 10 - - - -
28/05:00am 4.4 NW 7 8 1036.8 - 0.0 - - 10 - - - -
28/04:30am 5.3 NW 9 11 1036.8 - 0.0 - - 10 - - - -
28/04:00am 5.5 NW 8 10 1036.6 - 0.0 - - 10 - - - -
28/03:30am 6.0 NW 8 10 1036.7 - 0.0 - - 10 - - - -
28/03:00am 5.9 NW 8 9 1036.5 - 0.0 - - 10 - - - -
28/02:30am 5.2 WNW 6 8 1036.6 - 0.0 - - 10 - - - -
28/02:00am 5.2 NW 7 9 1036.5 - 0.0 - - 10 - - - -
28/01:30am 5.5 NW 7 9 1036.4 - 0.0 - - 10 - - - -
28/01:00am 5.7 WNW 6 9 1036.5 - 0.0 - - 10 - - - -
28/12:30am 6.0 NW 6 8 1036.5 - 0.0 - - 10 - - - -
28/12:00am 6.2 WNW 6 9 1036.7 - 0.0 - - 10 - - - -
 
Date/Time
CST
Temp

°C
Wind Pressure Rain
since 9am
mm
Weather Cloud Vis
km
Sea
Height
m
Swell
Dir
 
Speed
knots
Gust
knots
hPa Trend Height
m
Period
s
Dir
27/11:30pm 6.0 NW 7 9 1036.7 - 0.0 - - 10 - - - -
27/11:00pm 6.5 NW 5 6 1036.7 - 0.0 - Partly cloudy 10 - - - -
27/10:30pm 6.5 NW 6 7 1036.7 - 0.0 - Cloudy 10 - - - -
27/10:00pm 6.2 NW 7 8 1036.6 - 0.0 - - 10 - - - -
27/09:30pm 7.5 NW 7 9 1036.7 - 0.0 - Partly cloudy 10 - - - -
27/09:00pm 8.1 NNW 6 7 1036.8 - 0.0 - Cloudy 10 - - - -
27/08:30pm 7.3 WNW 5 6 1036.7 - 0.0 - Cloudy 10 - - - -
27/08:00pm 7.1 WNW 5 6 1036.6 - 0.0 - Cloudy 10 - - - -
27/07:30pm 6.5 W 5 6 1036.5 - 0.0 - Partly cloudy 10 - - - -
27/07:00pm 7.0 WSW 4 5 1036.3 - 0.0 - Partly cloudy 10 - - - -
27/06:30pm 8.2 SW 5 6 1036.1 - 0.0 - Partly cloudy 10 - - - -
27/06:00pm 9.9 SW 7 8 1035.7 - 0.0 - Mostly cloudy 10 - - - -
27/05:30pm 11.1 SW 7 9 1035.6 - 0.0 - Partly cloudy 10 - - - -
27/05:00pm 11.8 SW 7 11 1035.5 - 0.0 - Cloudy 10 - - - -
27/04:30pm 12.3 SW 6 8 1035.3 - 0.0 - Cloudy 10 - - - -
27/04:00pm 12.3 SW 7 10 1035.2 - 0.0 - Cloudy 10 - - - -
27/03:30pm 12.9 W 7 9 1035.1 - 0.0 - Cloudy 10 - - - -
27/03:00pm 12.6 W 9 11 1035.0 - 0.0 - Mostly cloudy 10 - - - -
27/02:30pm 13.1 WSW 7 9 1034.9 - 0.0 - Partly cloudy 10 - - - -
27/02:00pm 12.6 SSW 6 9 1034.9 - 0.0 - Partly cloudy 10 - - - -
27/01:30pm 11.9 S 11 13 1035.1 - 0.0 - Partly cloudy 10 - - - -
27/01:00pm 13.2 W 7 10 1035.3 - 0.0 - Cloudy 10 - - - -
27/12:30pm 13.1 W 9 12 1035.5 - 0.0 - Cloudy 10 - - - -
27/12:00pm 13.5 W 9 11 1035.7 - 0.0 - Mostly cloudy 10 - - - -
27/11:30am 13.2 WSW 7 11 1035.9 - 0.0 - Partly cloudy 10 - - - -
27/11:00am 12.7 W 9 11 1036.3 - 0.0 - - 10 - - - -
27/10:30am 11.8 WNW 8 11 1036.3 - 0.0 - Partly cloudy 10 - - - -
27/10:00am 11.1 NNW 7 10 1035.9 - 0.0 - - 10 - - - -
27/09:30am 10.3 NNW 6 8 1035.7 - 0.0 - Partly cloudy 10 - - - -
27/09:00am 8.5 N 6 8 1035.4 - 0.4 - Mostly cloudy 10 - - - -
27/08:30am 7.5 WNW 6 8 1035.4 - 0.4 - Partly cloudy 10 - - - -
27/08:00am 6.9 N 5 6 1034.9 - 0.4 - Partly cloudy 10 - - - -
27/07:30am 7.5 W 5 7 1034.6 - 0.4 - Cloudy 10 - - - -
27/07:00am 6.0 NW 9 10 1034.2 - 0.4 - Partly cloudy 10 - - - -
27/06:30am 5.5 NW 7 8 1033.8 - 0.4 - Partly cloudy 10 - - - -
27/06:00am 5.6 NW 7 8 1033.5 - 0.4 - Mostly cloudy 10 - - - -
27/05:30am 6.4 WNW 6 8 1033.2 - 0.4 - Partly cloudy 10 - - - -
27/05:00am 7.6 WNW 7 9 1032.9 - 0.4 - Partly cloudy 10 - - - -
27/04:30am 6.5 WSW 4 8 1032.8 - 0.4 - Partly cloudy 10 - - - -
27/04:00am 5.3 SW 3 6 1032.6 - 0.4 - Partly cloudy 10 - - - -
27/03:30am 5.3 NW 9 10 1032.4 - 0.4 - - 10 - - - -
27/03:00am 4.9 NW 3 6 1032.5 - 0.4 - - 10 - - - -
27/02:30am 6.2 NW 6 7 1032.5 - 0.4 - Partly cloudy 10 - - - -
27/02:00am 7.7 W 10 14 1032.4 - 0.4 - Partly cloudy 10 - - - -
27/01:30am 5.6 WNW 5 7 1032.6 - 0.4 - Partly cloudy 10 - - - -
27/01:00am 4.7 NW 6 7 1032.2 - 0.4 - Partly cloudy 10 - - - -
27/12:30am 5.8 CALM 0 0 1032.1 - 0.4 - Partly cloudy 10 - - - -
27/12:00am 5.9 SSW 1 5 1031.9 - 0.4 - Cloudy 10 - - - -
 
Date/Time
CST
Temp

°C
Wind Pressure Rain
since 9am
mm
Weather Cloud Vis
km
Sea
Height
m
Swell
Dir
 
Speed
knots
Gust
knots
hPa Trend Height
m
Period
s
Dir
26/11:30pm 5.0 ENE 3 6 1031.8 - 0.4 - Partly cloudy 10 - - - -
26/11:00pm 5.4 WNW 5 6 1031.5 - 0.4 - Partly cloudy 10 - - - -
26/10:30pm 4.8 NNW 5 6 1031.4 - 0.4 - - 10 - - - -
26/10:00pm 5.5 W 4 5 1031.4 - 0.4 - Partly cloudy 10 - - - -
26/09:30pm 6.4 WSW 7 8 1031.2 - 0.4 - Partly cloudy 10 - - - -
26/09:00pm 6.4 W 6 7 1030.7 - 0.4 - Mostly clear 10 - - - -
26/08:30pm 7.7 WSW 7 11 1030.4 - 0.4 - Partly cloudy 10 - - - -
26/08:00pm 5.4 WSW 5 6 1030.1 - 0.4 - Partly cloudy 10 - - - -
26/07:30pm 5.7 W 7 7 1029.8 - 0.4 - - 10 - - - -
26/07:00pm 6.3 WSW 8 9 1029.4 - 0.4 - - 10 - - - -
26/06:30pm 7.3 WSW 6 8 1029.0 - 0.4 - Partly cloudy 10 - - - -
26/06:00pm 8.8 SW 10 20 1028.7 - 0.4 - Mostly clear 10 - - - -
26/05:30pm 9.9 SW 7 12 1028.2 - 0.4 - Partly cloudy 10 - - - -
26/05:00pm 10.0 SW 7 10 1027.7 - 0.4 - Partly cloudy 10 - - - -
26/04:30pm 11.2 SW 6 7 1027.4 - 0.4 - Partly cloudy 10 - - - -
26/04:00pm 11.4 SW 11 16 1026.9 - 0.4 - Partly cloudy 10 - - - -
26/03:30pm 11.3 WSW 9 14 1026.9 - 0.4 - Partly cloudy 10 - - - -
26/03:00pm 11.4 SSW 12 16 1026.6 - 0.4 - - 10 - - - -
26/02:30pm 9.9 SSW 17 26 1026.6 - 0.4 - Partly cloudy 10 - - - -
26/02:20pm 10.4 SW 15 27 1026.3 - 0.4 - Partly cloudy 10 - - - -
26/02:00pm 10.6 SW 15 21 1026.3 - 0.4 - Partly cloudy 10 - - - -
26/01:30pm 10.6 WSW 12 18 1026.3 - 0.4 - Partly cloudy 10 - - - -
26/01:04pm 11.5 SW 15 27 1026.0 - 0.4 - Partly cloudy 10 - - - -
26/01:00pm 13.4 WSW 13 19 1026.1 - 0.4 - Partly cloudy 10 - - - -
26/12:30pm 11.6 SW 12 18 1026.4 - 0.4 - Partly cloudy 10 - - - -
26/12:00pm 11.4 WSW 13 17 1026.4 - 0.4 Recent precip. Partly cloudy 10 - - - -
26/11:30am 11.1 SW 13 18 1026.4 - 0.4 - Partly cloudy 10 - - - -
26/11:00am 10.9 W 9 16 1026.2 - 0.2 - Partly cloudy 10 - - - -
26/10:30am 10.1 WSW 10 13 1026.0 - 0.2 - Partly cloudy 10 - - - -
26/10:00am 10.7 W 8 11 1025.4 - 0.0 - Partly cloudy 10 - - - -
26/09:30am 9.7 WSW 13 20 1025.2 - 0.0 - Partly cloudy 10 - - - -
26/09:00am 9.8 WSW 7 10 1024.6 - 4.2 - Partly cloudy 10 - - - -
26/08:30am 7.7 WNW 7 9 1024.2 - 4.2 - Partly cloudy 10 - - - -
26/08:00am 6.3 W 7 8 1023.9 - 4.2 - Partly cloudy 10 - - - -
26/07:30am 6.8 WSW 8 11 1023.4 - 4.2 - Partly cloudy 10 - - - -

Other Formats:

Comma delimited format used in spreadsheet applications
http://www.bom.gov.au/fwo/IDS60701/IDS60701.95661.axf

JavaScript Object Notation format (JSON) in row-major order
http://www.bom.gov.au/fwo/IDS60701/IDS60701.95661.json